sensor_id;sensor_type;location;lat;lon;timestamp;P1;durP1;ratioP1;P2;durP2;ratioP2
51566;SDS011;37657;53.182;5.638;2023-07-31T00:01:59;4.45;;;2.20;;
51566;SDS011;37657;53.182;5.638;2023-07-31T00:04:24;3.33;;;2.08;;
51566;SDS011;37657;53.182;5.638;2023-07-31T00:06:50;7.95;;;2.75;;
51566;SDS011;37657;53.182;5.638;2023-07-31T00:09:15;4.78;;;1.80;;
51566;SDS011;37657;53.182;5.638;2023-07-31T00:11:41;4.70;;;2.63;;
51566;SDS011;37657;53.182;5.638;2023-07-31T00:14:07;4.70;;;2.55;;
51566;SDS011;37657;53.182;5.638;2023-07-31T00:16:32;4.03;;;2.17;;
51566;SDS011;37657;53.182;5.638;2023-07-31T00:18:58;4.80;;;2.15;;
51566;SDS011;37657;53.182;5.638;2023-07-31T00:21:23;4.55;;;2.05;;
51566;SDS011;37657;53.182;5.638;2023-07-31T00:23:49;6.28;;;2.72;;
51566;SDS011;37657;53.182;5.638;2023-07-31T00:26:14;4.00;;;2.30;;
51566;SDS011;37657;53.182;5.638;2023-07-31T00:28:40;4.72;;;2.35;;
51566;SDS011;37657;53.182;5.638;2023-07-31T00:31:06;4.70;;;2.40;;
51566;SDS011;37657;53.182;5.638;2023-07-31T00:33:31;6.50;;;2.63;;
51566;SDS011;37657;53.182;5.638;2023-07-31T00:35:57;5.18;;;2.70;;
51566;SDS011;37657;53.182;5.638;2023-07-31T00:38:22;9.88;;;3.15;;
51566;SDS011;37657;53.182;5.638;2023-07-31T00:40:48;5.43;;;2.63;;
51566;SDS011;37657;53.182;5.638;2023-07-31T00:43:13;4.80;;;1.90;;
51566;SDS011;37657;53.182;5.638;2023-07-31T00:45:39;6.65;;;2.58;;
51566;SDS011;37657;53.182;5.638;2023-07-31T00:48:05;6.05;;;1.95;;
51566;SDS011;37657;53.182;5.638;2023-07-31T00:50:31;17.90;;;2.92;;
51566;SDS011;37657;53.182;5.638;2023-07-31T00:52:58;4.60;;;2.33;;
51566;SDS011;37657;53.182;5.638;2023-07-31T00:55:24;19.60;;;2.58;;
51566;SDS011;37657;53.182;5.638;2023-07-31T00:57:49;5.00;;;2.63;;
51566;SDS011;37657;53.182;5.638;2023-07-31T01:00:17;4.85;;;1.63;;
51566;SDS011;37657;53.182;5.638;2023-07-31T01:02:43;4.85;;;2.42;;
51566;SDS011;37657;53.182;5.638;2023-07-31T01:05:09;5.07;;;2.75;;
51566;SDS011;37657;53.182;5.638;2023-07-31T01:07:39;8.98;;;2.45;;
51566;SDS011;37657;53.182;5.638;2023-07-31T01:12:50;4.80;;;2.25;;
51566;SDS011;37657;53.182;5.638;2023-07-31T01:15:16;3.47;;;1.70;;
51566;SDS011;37657;53.182;5.638;2023-07-31T01:17:42;7.88;;;2.25;;
51566;SDS011;37657;53.182;5.638;2023-07-31T01:20:16;4.82;;;1.80;;
51566;SDS011;37657;53.182;5.638;2023-07-31T01:25:46;6.60;;;2.65;;
51566;SDS011;37657;53.182;5.638;2023-07-31T01:28:25;5.97;;;3.03;;
51566;SDS011;37657;53.182;5.638;2023-07-31T01:31:02;5.68;;;2.63;;
51566;SDS011;37657;53.182;5.638;2023-07-31T01:33:32;2.72;;;1.88;;
51566;SDS011;37657;53.182;5.638;2023-07-31T01:35:59;3.00;;;1.83;;
51566;SDS011;37657;53.182;5.638;2023-07-31T01:38:24;4.60;;;2.08;;
51566;SDS011;37657;53.182;5.638;2023-07-31T01:40:53;3.25;;;1.52;;
51566;SDS011;37657;53.182;5.638;2023-07-31T01:43:19;4.57;;;2.42;;
51566;SDS011;37657;53.182;5.638;2023-07-31T01:45:44;6.95;;;2.38;;
51566;SDS011;37657;53.182;5.638;2023-07-31T01:48:10;3.45;;;1.60;;
51566;SDS011;37657;53.182;5.638;2023-07-31T01:50:35;4.55;;;2.33;;
51566;SDS011;37657;53.182;5.638;2023-07-31T01:53:01;4.13;;;1.65;;
51566;SDS011;37657;53.182;5.638;2023-07-31T01:55:26;3.60;;;2.13;;
51566;SDS011;37657;53.182;5.638;2023-07-31T01:57:52;3.70;;;1.67;;
51566;SDS011;37657;53.182;5.638;2023-07-31T02:00:18;4.25;;;1.60;;
51566;SDS011;37657;53.182;5.638;2023-07-31T02:02:43;2.38;;;1.58;;
51566;SDS011;37657;53.182;5.638;2023-07-31T02:05:09;2.42;;;2.03;;
51566;SDS011;37657;53.182;5.638;2023-07-31T02:07:35;4.90;;;1.90;;
51566;SDS011;37657;53.182;5.638;2023-07-31T02:10:00;6.72;;;2.47;;
51566;SDS011;37657;53.182;5.638;2023-07-31T02:12:26;5.85;;;2.67;;
51566;SDS011;37657;53.182;5.638;2023-07-31T02:14:51;5.10;;;2.20;;
51566;SDS011;37657;53.182;5.638;2023-07-31T02:17:17;4.18;;;2.05;;
51566;SDS011;37657;53.182;5.638;2023-07-31T02:19:42;5.13;;;1.88;;
51566;SDS011;37657;53.182;5.638;2023-07-31T02:22:08;4.60;;;1.80;;
51566;SDS011;37657;53.182;5.638;2023-07-31T02:24:34;3.17;;;2.00;;
51566;SDS011;37657;53.182;5.638;2023-07-31T02:26:59;3.97;;;1.80;;
51566;SDS011;37657;53.182;5.638;2023-07-31T02:29:25;4.70;;;2.22;;
51566;SDS011;37657;53.182;5.638;2023-07-31T02:31:50;8.00;;;2.65;;
51566;SDS011;37657;53.182;5.638;2023-07-31T02:34:16;3.88;;;1.95;;
51566;SDS011;37657;53.182;5.638;2023-07-31T02:36:41;5.25;;;1.45;;
51566;SDS011;37657;53.182;5.638;2023-07-31T02:39:07;2.97;;;2.05;;
51566;SDS011;37657;53.182;5.638;2023-07-31T02:41:32;5.88;;;2.22;;
51566;SDS011;37657;53.182;5.638;2023-07-31T02:43:58;3.22;;;1.90;;
51566;SDS011;37657;53.182;5.638;2023-07-31T02:46:23;3.90;;;1.70;;
51566;SDS011;37657;53.182;5.638;2023-07-31T02:48:50;4.63;;;1.92;;
51566;SDS011;37657;53.182;5.638;2023-07-31T02:51:16;3.28;;;1.48;;
51566;SDS011;37657;53.182;5.638;2023-07-31T02:53:42;4.15;;;1.20;;
51566;SDS011;37657;53.182;5.638;2023-07-31T02:56:07;4.72;;;1.55;;
51566;SDS011;37657;53.182;5.638;2023-07-31T02:58:33;2.38;;;1.33;;
51566;SDS011;37657;53.182;5.638;2023-07-31T03:00:59;1.85;;;1.20;;
51566;SDS011;37657;53.182;5.638;2023-07-31T03:03:24;3.22;;;1.35;;
51566;SDS011;37657;53.182;5.638;2023-07-31T03:05:50;2.65;;;1.38;;
51566;SDS011;37657;53.182;5.638;2023-07-31T03:08:15;2.55;;;1.30;;
51566;SDS011;37657;53.182;5.638;2023-07-31T03:10:41;2.10;;;1.08;;
51566;SDS011;37657;53.182;5.638;2023-07-31T03:13:06;2.25;;;1.27;;
51566;SDS011;37657;53.182;5.638;2023-07-31T03:15:32;2.10;;;1.13;;
51566;SDS011;37657;53.182;5.638;2023-07-31T03:17:58;1.80;;;1.30;;
51566;SDS011;37657;53.182;5.638;2023-07-31T03:20:23;3.13;;;0.80;;
51566;SDS011;37657;53.182;5.638;2023-07-31T03:22:49;2.28;;;1.05;;
51566;SDS011;37657;53.182;5.638;2023-07-31T03:25:14;1.65;;;1.08;;
51566;SDS011;37657;53.182;5.638;2023-07-31T03:27:40;1.85;;;0.90;;
51566;SDS011;37657;53.182;5.638;2023-07-31T03:30:06;2.50;;;1.02;;
51566;SDS011;37657;53.182;5.638;2023-07-31T03:32:32;1.15;;;0.80;;
51566;SDS011;37657;53.182;5.638;2023-07-31T03:34:57;1.48;;;1.08;;
51566;SDS011;37657;53.182;5.638;2023-07-31T03:37:23;2.80;;;1.58;;
51566;SDS011;37657;53.182;5.638;2023-07-31T03:39:49;6.35;;;1.83;;
51566;SDS011;37657;53.182;5.638;2023-07-31T03:42:14;2.95;;;1.52;;
51566;SDS011;37657;53.182;5.638;2023-07-31T03:44:40;2.88;;;1.58;;
51566;SDS011;37657;53.182;5.638;2023-07-31T03:47:05;7.43;;;2.10;;
51566;SDS011;37657;53.182;5.638;2023-07-31T03:49:31;5.55;;;2.08;;
51566;SDS011;37657;53.182;5.638;2023-07-31T03:51:57;4.78;;;2.20;;
51566;SDS011;37657;53.182;5.638;2023-07-31T03:54:22;5.10;;;2.35;;
51566;SDS011;37657;53.182;5.638;2023-07-31T03:56:48;6.63;;;2.97;;
51566;SDS011;37657;53.182;5.638;2023-07-31T03:59:13;7.22;;;3.10;;
51566;SDS011;37657;53.182;5.638;2023-07-31T04:01:39;6.55;;;3.65;;
51566;SDS011;37657;53.182;5.638;2023-07-31T04:04:04;14.63;;;4.65;;
51566;SDS011;37657;53.182;5.638;2023-07-31T04:06:30;8.90;;;4.97;;
51566;SDS011;37657;53.182;5.638;2023-07-31T04:08:56;13.63;;;6.43;;
51566;SDS011;37657;53.182;5.638;2023-07-31T04:11:21;7.40;;;4.57;;
51566;SDS011;37657;53.182;5.638;2023-07-31T04:13:47;9.93;;;4.88;;
51566;SDS011;37657;53.182;5.638;2023-07-31T04:16:12;8.88;;;4.70;;
51566;SDS011;37657;53.182;5.638;2023-07-31T04:18:38;13.32;;;5.50;;
51566;SDS011;37657;53.182;5.638;2023-07-31T04:21:04;6.55;;;4.07;;
51566;SDS011;37657;53.182;5.638;2023-07-31T04:23:29;10.80;;;4.65;;
51566;SDS011;37657;53.182;5.638;2023-07-31T04:25:55;11.57;;;4.97;;
51566;SDS011;37657;53.182;5.638;2023-07-31T04:28:20;9.32;;;4.18;;
51566;SDS011;37657;53.182;5.638;2023-07-31T04:30:46;7.70;;;4.90;;
51566;SDS011;37657;53.182;5.638;2023-07-31T04:33:12;6.80;;;4.40;;
51566;SDS011;37657;53.182;5.638;2023-07-31T04:35:38;14.23;;;4.93;;
51566;SDS011;37657;53.182;5.638;2023-07-31T04:38:03;13.48;;;4.05;;
51566;SDS011;37657;53.182;5.638;2023-07-31T04:40:29;7.32;;;3.67;;
51566;SDS011;37657;53.182;5.638;2023-07-31T04:42:54;6.95;;;4.05;;
51566;SDS011;37657;53.182;5.638;2023-07-31T04:45:20;8.20;;;4.95;;
51566;SDS011;37657;53.182;5.638;2023-07-31T04:47:45;8.13;;;3.95;;
51566;SDS011;37657;53.182;5.638;2023-07-31T04:50:11;7.63;;;4.15;;
51566;SDS011;37657;53.182;5.638;2023-07-31T04:52:37;10.05;;;4.72;;
51566;SDS011;37657;53.182;5.638;2023-07-31T04:55:02;8.23;;;4.95;;
51566;SDS011;37657;53.182;5.638;2023-07-31T04:57:28;8.57;;;5.05;;
51566;SDS011;37657;53.182;5.638;2023-07-31T04:59:53;16.80;;;6.45;;
51566;SDS011;37657;53.182;5.638;2023-07-31T05:02:19;16.50;;;7.53;;
51566;SDS011;37657;53.182;5.638;2023-07-31T05:04:44;13.13;;;6.45;;
51566;SDS011;37657;53.182;5.638;2023-07-31T05:07:10;15.55;;;8.43;;
51566;SDS011;37657;53.182;5.638;2023-07-31T05:09:36;15.88;;;8.18;;
51566;SDS011;37657;53.182;5.638;2023-07-31T05:12:01;20.20;;;8.57;;
51566;SDS011;37657;53.182;5.638;2023-07-31T05:14:29;14.80;;;7.30;;
51566;SDS011;37657;53.182;5.638;2023-07-31T05:16:54;12.32;;;6.45;;
51566;SDS011;37657;53.182;5.638;2023-07-31T05:19:20;11.90;;;6.97;;
51566;SDS011;37657;53.182;5.638;2023-07-31T05:21:45;13.45;;;6.18;;
51566;SDS011;37657;53.182;5.638;2023-07-31T05:24:11;15.80;;;6.28;;
51566;SDS011;37657;53.182;5.638;2023-07-31T05:26:36;15.10;;;5.93;;
51566;SDS011;37657;53.182;5.638;2023-07-31T05:29:02;11.30;;;5.85;;
51566;SDS011;37657;53.182;5.638;2023-07-31T05:31:28;9.00;;;4.50;;
51566;SDS011;37657;53.182;5.638;2023-07-31T05:33:54;10.30;;;5.10;;
51566;SDS011;37657;53.182;5.638;2023-07-31T05:36:19;6.43;;;3.25;;
51566;SDS011;37657;53.182;5.638;2023-07-31T05:38:46;8.30;;;4.25;;
51566;SDS011;37657;53.182;5.638;2023-07-31T05:41:12;11.70;;;4.45;;
51566;SDS011;37657;53.182;5.638;2023-07-31T05:43:38;7.60;;;4.93;;
51566;SDS011;37657;53.182;5.638;2023-07-31T05:46:03;8.93;;;4.40;;
51566;SDS011;37657;53.182;5.638;2023-07-31T05:48:29;7.20;;;3.83;;
51566;SDS011;37657;53.182;5.638;2023-07-31T05:50:54;6.55;;;2.90;;
51566;SDS011;37657;53.182;5.638;2023-07-31T05:53:20;5.75;;;2.63;;
51566;SDS011;37657;53.182;5.638;2023-07-31T05:55:45;4.38;;;2.78;;
51566;SDS011;37657;53.182;5.638;2023-07-31T05:58:11;7.80;;;3.85;;
51566;SDS011;37657;53.182;5.638;2023-07-31T06:00:36;14.50;;;3.30;;
51566;SDS011;37657;53.182;5.638;2023-07-31T06:03:02;6.85;;;3.85;;
51566;SDS011;37657;53.182;5.638;2023-07-31T06:05:28;11.55;;;4.60;;
51566;SDS011;37657;53.182;5.638;2023-07-31T06:07:55;8.77;;;5.00;;
51566;SDS011;37657;53.182;5.638;2023-07-31T06:10:21;8.73;;;4.25;;
51566;SDS011;37657;53.182;5.638;2023-07-31T06:12:46;9.35;;;4.28;;
51566;SDS011;37657;53.182;5.638;2023-07-31T06:15:12;6.80;;;3.88;;
51566;SDS011;37657;53.182;5.638;2023-07-31T06:17:37;7.97;;;3.88;;
51566;SDS011;37657;53.182;5.638;2023-07-31T06:20:03;9.50;;;4.22;;
51566;SDS011;37657;53.182;5.638;2023-07-31T06:22:31;9.70;;;4.55;;
51566;SDS011;37657;53.182;5.638;2023-07-31T06:24:56;7.93;;;4.68;;
51566;SDS011;37657;53.182;5.638;2023-07-31T06:27:22;8.95;;;4.45;;
51566;SDS011;37657;53.182;5.638;2023-07-31T06:29:48;8.13;;;4.10;;
51566;SDS011;37657;53.182;5.638;2023-07-31T06:32:13;6.28;;;3.95;;
51566;SDS011;37657;53.182;5.638;2023-07-31T06:34:39;9.70;;;4.45;;
51566;SDS011;37657;53.182;5.638;2023-07-31T06:37:04;7.32;;;3.95;;
51566;SDS011;37657;53.182;5.638;2023-07-31T06:39:30;8.38;;;4.43;;
51566;SDS011;37657;53.182;5.638;2023-07-31T06:41:56;8.15;;;3.88;;
51566;SDS011;37657;53.182;5.638;2023-07-31T06:44:21;5.40;;;3.08;;
51566;SDS011;37657;53.182;5.638;2023-07-31T06:46:47;7.28;;;3.92;;
51566;SDS011;37657;53.182;5.638;2023-07-31T06:49:12;8.95;;;4.25;;
51566;SDS011;37657;53.182;5.638;2023-07-31T06:51:40;9.05;;;3.63;;
51566;SDS011;37657;53.182;5.638;2023-07-31T06:54:06;6.22;;;2.97;;
51566;SDS011;37657;53.182;5.638;2023-07-31T06:56:34;5.65;;;2.88;;
51566;SDS011;37657;53.182;5.638;2023-07-31T06:58:59;5.82;;;3.17;;
51566;SDS011;37657;53.182;5.638;2023-07-31T07:01:25;5.30;;;3.00;;
51566;SDS011;37657;53.182;5.638;2023-07-31T07:03:51;9.93;;;3.85;;
51566;SDS011;37657;53.182;5.638;2023-07-31T07:06:17;5.93;;;3.13;;
51566;SDS011;37657;53.182;5.638;2023-07-31T07:08:42;3.63;;;1.98;;
51566;SDS011;37657;53.182;5.638;2023-07-31T07:11:08;6.03;;;2.45;;
51566;SDS011;37657;53.182;5.638;2023-07-31T07:13:34;6.05;;;2.33;;
51566;SDS011;37657;53.182;5.638;2023-07-31T07:15:59;3.85;;;1.92;;
51566;SDS011;37657;53.182;5.638;2023-07-31T07:18:25;3.00;;;1.58;;
51566;SDS011;37657;53.182;5.638;2023-07-31T07:20:51;4.10;;;1.77;;
51566;SDS011;37657;53.182;5.638;2023-07-31T07:23:18;2.38;;;1.95;;
51566;SDS011;37657;53.182;5.638;2023-07-31T07:25:44;1.92;;;1.38;;
51566;SDS011;37657;53.182;5.638;2023-07-31T07:28:10;3.97;;;1.90;;
51566;SDS011;37657;53.182;5.638;2023-07-31T07:30:36;2.75;;;1.48;;
51566;SDS011;37657;53.182;5.638;2023-07-31T07:33:02;2.10;;;1.10;;
51566;SDS011;37657;53.182;5.638;2023-07-31T07:35:28;0.70;;;0.50;;
51566;SDS011;37657;53.182;5.638;2023-07-31T07:37:53;1.65;;;1.00;;
51566;SDS011;37657;53.182;5.638;2023-07-31T07:40:20;1.48;;;0.73;;
51566;SDS011;37657;53.182;5.638;2023-07-31T07:42:45;1.02;;;0.70;;
51566;SDS011;37657;53.182;5.638;2023-07-31T07:45:12;2.22;;;1.10;;
51566;SDS011;37657;53.182;5.638;2023-07-31T07:47:38;2.85;;;1.10;;
51566;SDS011;37657;53.182;5.638;2023-07-31T07:50:05;1.52;;;0.95;;
51566;SDS011;37657;53.182;5.638;2023-07-31T07:52:31;2.20;;;0.68;;
51566;SDS011;37657;53.182;5.638;2023-07-31T07:54:57;3.95;;;1.23;;
51566;SDS011;37657;53.182;5.638;2023-07-31T07:57:23;3.60;;;1.40;;
51566;SDS011;37657;53.182;5.638;2023-07-31T07:59:48;3.10;;;1.45;;
51566;SDS011;37657;53.182;5.638;2023-07-31T08:02:14;4.28;;;1.50;;
51566;SDS011;37657;53.182;5.638;2023-07-31T08:04:39;3.80;;;1.42;;
51566;SDS011;37657;53.182;5.638;2023-07-31T08:07:05;3.58;;;1.58;;
51566;SDS011;37657;53.182;5.638;2023-07-31T08:09:31;5.50;;;1.85;;
51566;SDS011;37657;53.182;5.638;2023-07-31T08:11:56;1.95;;;1.13;;
51566;SDS011;37657;53.182;5.638;2023-07-31T08:14:27;10.05;;;2.60;;
51566;SDS011;37657;53.182;5.638;2023-07-31T08:16:55;5.45;;;1.83;;
51566;SDS011;37657;53.182;5.638;2023-07-31T08:19:21;3.03;;;1.63;;
51566;SDS011;37657;53.182;5.638;2023-07-31T08:21:46;3.38;;;1.38;;
51566;SDS011;37657;53.182;5.638;2023-07-31T08:24:12;4.05;;;1.55;;
51566;SDS011;37657;53.182;5.638;2023-07-31T08:26:38;2.03;;;1.30;;
51566;SDS011;37657;53.182;5.638;2023-07-31T08:29:03;3.25;;;1.65;;
51566;SDS011;37657;53.182;5.638;2023-07-31T08:31:29;5.72;;;2.15;;
51566;SDS011;37657;53.182;5.638;2023-07-31T08:33:55;3.28;;;1.30;;
51566;SDS011;37657;53.182;5.638;2023-07-31T08:36:21;4.05;;;1.30;;
51566;SDS011;37657;53.182;5.638;2023-07-31T08:38:46;3.47;;;1.80;;
51566;SDS011;37657;53.182;5.638;2023-07-31T08:41:12;2.63;;;1.35;;
51566;SDS011;37657;53.182;5.638;2023-07-31T08:43:42;2.90;;;1.30;;
51566;SDS011;37657;53.182;5.638;2023-07-31T08:46:10;5.10;;;2.25;;
51566;SDS011;37657;53.182;5.638;2023-07-31T08:48:36;3.60;;;1.73;;
51566;SDS011;37657;53.182;5.638;2023-07-31T08:51:03;3.83;;;1.80;;
51566;SDS011;37657;53.182;5.638;2023-07-31T08:53:29;2.10;;;1.15;;
51566;SDS011;37657;53.182;5.638;2023-07-31T08:55:54;2.75;;;1.45;;
51566;SDS011;37657;53.182;5.638;2023-07-31T08:58:23;2.42;;;1.60;;
51566;SDS011;37657;53.182;5.638;2023-07-31T09:00:49;4.10;;;1.55;;
51566;SDS011;37657;53.182;5.638;2023-07-31T09:03:17;4.13;;;1.75;;
51566;SDS011;37657;53.182;5.638;2023-07-31T09:05:44;4.57;;;1.42;;
51566;SDS011;37657;53.182;5.638;2023-07-31T09:08:15;2.13;;;1.30;;
51566;SDS011;37657;53.182;5.638;2023-07-31T09:10:45;2.03;;;1.10;;
51566;SDS011;37657;53.182;5.638;2023-07-31T09:13:11;2.55;;;1.60;;
51566;SDS011;37657;53.182;5.638;2023-07-31T09:15:37;1.75;;;0.98;;
51566;SDS011;37657;53.182;5.638;2023-07-31T09:18:05;2.58;;;1.20;;
51566;SDS011;37657;53.182;5.638;2023-07-31T09:20:31;3.35;;;1.50;;
51566;SDS011;37657;53.182;5.638;2023-07-31T09:23:04;2.75;;;1.35;;
51566;SDS011;37657;53.182;5.638;2023-07-31T09:25:34;6.55;;;2.08;;
51566;SDS011;37657;53.182;5.638;2023-07-31T09:28:02;2.70;;;1.52;;
51566;SDS011;37657;53.182;5.638;2023-07-31T09:30:43;5.95;;;2.53;;
51566;SDS011;37657;53.182;5.638;2023-07-31T09:33:13;4.25;;;2.40;;
51566;SDS011;37657;53.182;5.638;2023-07-31T09:35:39;3.92;;;1.35;;
51566;SDS011;37657;53.182;5.638;2023-07-31T09:38:12;4.18;;;1.55;;
51566;SDS011;37657;53.182;5.638;2023-07-31T09:40:40;3.75;;;1.58;;
51566;SDS011;37657;53.182;5.638;2023-07-31T09:43:07;6.05;;;2.22;;
51566;SDS011;37657;53.182;5.638;2023-07-31T09:45:39;3.33;;;1.80;;
51566;SDS011;37657;53.182;5.638;2023-07-31T09:48:09;3.20;;;1.52;;
51566;SDS011;37657;53.182;5.638;2023-07-31T09:50:39;5.43;;;1.92;;
51566;SDS011;37657;53.182;5.638;2023-07-31T09:53:06;4.60;;;2.03;;
51566;SDS011;37657;53.182;5.638;2023-07-31T09:55:33;7.18;;;2.22;;
51566;SDS011;37657;53.182;5.638;2023-07-31T09:57:59;4.30;;;2.75;;
51566;SDS011;37657;53.182;5.638;2023-07-31T10:00:28;3.13;;;1.92;;
51566;SDS011;37657;53.182;5.638;2023-07-31T10:02:56;5.60;;;2.08;;
51566;SDS011;37657;53.182;5.638;2023-07-31T10:05:24;3.17;;;1.52;;
51566;SDS011;37657;53.182;5.638;2023-07-31T10:07:58;3.20;;;2.05;;
51566;SDS011;37657;53.182;5.638;2023-07-31T10:10:24;4.97;;;1.83;;
51566;SDS011;37657;53.182;5.638;2023-07-31T10:12:51;6.30;;;2.47;;
51566;SDS011;37657;53.182;5.638;2023-07-31T10:15:18;4.30;;;1.90;;
51566;SDS011;37657;53.182;5.638;2023-07-31T10:17:44;3.70;;;1.90;;
51566;SDS011;37657;53.182;5.638;2023-07-31T10:20:12;4.70;;;2.10;;
51566;SDS011;37657;53.182;5.638;2023-07-31T10:22:41;4.55;;;1.90;;
51566;SDS011;37657;53.182;5.638;2023-07-31T10:25:07;4.32;;;2.17;;
51566;SDS011;37657;53.182;5.638;2023-07-31T10:27:35;2.28;;;1.45;;
51566;SDS011;37657;53.182;5.638;2023-07-31T10:30:03;3.08;;;1.50;;
51566;SDS011;37657;53.182;5.638;2023-07-31T10:32:30;3.90;;;2.05;;
51566;SDS011;37657;53.182;5.638;2023-07-31T10:34:56;5.28;;;1.83;;
51566;SDS011;37657;53.182;5.638;2023-07-31T10:37:29;2.65;;;1.67;;
51566;SDS011;37657;53.182;5.638;2023-07-31T10:40:02;4.00;;;2.35;;
51566;SDS011;37657;53.182;5.638;2023-07-31T10:42:34;2.22;;;1.40;;
51566;SDS011;37657;53.182;5.638;2023-07-31T10:45:10;2.53;;;1.20;;
51566;SDS011;37657;53.182;5.638;2023-07-31T10:47:42;4.10;;;1.70;;
51566;SDS011;37657;53.182;5.638;2023-07-31T10:50:12;2.10;;;1.45;;
51566;SDS011;37657;53.182;5.638;2023-07-31T10:52:42;4.05;;;2.42;;
51566;SDS011;37657;53.182;5.638;2023-07-31T10:55:26;4.43;;;2.65;;
51566;SDS011;37657;53.182;5.638;2023-07-31T10:58:09;5.33;;;2.60;;
51566;SDS011;37657;53.182;5.638;2023-07-31T11:03:07;5.28;;;1.90;;
51566;SDS011;37657;53.182;5.638;2023-07-31T11:05:42;5.13;;;2.28;;
51566;SDS011;37657;53.182;5.638;2023-07-31T11:08:24;5.57;;;3.23;;
51566;SDS011;37657;53.182;5.638;2023-07-31T11:13:26;3.60;;;2.03;;
51566;SDS011;37657;53.182;5.638;2023-07-31T11:15:55;3.53;;;2.15;;
51566;SDS011;37657;53.182;5.638;2023-07-31T11:18:21;2.95;;;1.40;;
51566;SDS011;37657;53.182;5.638;2023-07-31T11:20:47;4.75;;;1.10;;
51566;SDS011;37657;53.182;5.638;2023-07-31T11:23:12;4.57;;;1.83;;
51566;SDS011;37657;53.182;5.638;2023-07-31T11:25:41;4.03;;;1.50;;
51566;SDS011;37657;53.182;5.638;2023-07-31T11:28:08;3.38;;;1.27;;
51566;SDS011;37657;53.182;5.638;2023-07-31T11:30:34;4.47;;;1.50;;
51566;SDS011;37657;53.182;5.638;2023-07-31T11:33:03;4.07;;;1.80;;
51566;SDS011;37657;53.182;5.638;2023-07-31T11:35:30;2.85;;;1.70;;
51566;SDS011;37657;53.182;5.638;2023-07-31T11:38:01;4.93;;;2.17;;
51566;SDS011;37657;53.182;5.638;2023-07-31T11:40:27;6.00;;;2.65;;
51566;SDS011;37657;53.182;5.638;2023-07-31T11:43:03;4.50;;;2.53;;
51566;SDS011;37657;53.182;5.638;2023-07-31T11:45:30;6.55;;;3.30;;
51566;SDS011;37657;53.182;5.638;2023-07-31T11:47:56;8.27;;;3.08;;
51566;SDS011;37657;53.182;5.638;2023-07-31T11:50:23;5.40;;;2.85;;
51566;SDS011;37657;53.182;5.638;2023-07-31T11:52:51;6.05;;;2.63;;
51566;SDS011;37657;53.182;5.638;2023-07-31T11:55:21;5.82;;;3.00;;
51566;SDS011;37657;53.182;5.638;2023-07-31T11:57:48;8.70;;;3.83;;
51566;SDS011;37657;53.182;5.638;2023-07-31T12:00:14;10.38;;;3.38;;
51566;SDS011;37657;53.182;5.638;2023-07-31T12:02:40;13.13;;;3.25;;
51566;SDS011;37657;53.182;5.638;2023-07-31T12:05:09;8.57;;;3.95;;
51566;SDS011;37657;53.182;5.638;2023-07-31T12:07:43;6.15;;;3.08;;
51566;SDS011;37657;53.182;5.638;2023-07-31T12:10:10;10.25;;;4.15;;
51566;SDS011;37657;53.182;5.638;2023-07-31T12:12:36;9.60;;;3.65;;
51566;SDS011;37657;53.182;5.638;2023-07-31T12:15:01;7.68;;;3.85;;
51566;SDS011;37657;53.182;5.638;2023-07-31T12:17:27;10.27;;;5.53;;
51566;SDS011;37657;53.182;5.638;2023-07-31T12:19:53;6.90;;;3.92;;
51566;SDS011;37657;53.182;5.638;2023-07-31T12:22:19;7.47;;;3.55;;
51566;SDS011;37657;53.182;5.638;2023-07-31T12:24:46;11.10;;;4.43;;
51566;SDS011;37657;53.182;5.638;2023-07-31T12:27:12;8.65;;;4.25;;
51566;SDS011;37657;53.182;5.638;2023-07-31T12:29:39;18.10;;;4.50;;
51566;SDS011;37657;53.182;5.638;2023-07-31T12:32:22;6.20;;;3.28;;
51566;SDS011;37657;53.182;5.638;2023-07-31T12:34:49;8.88;;;4.20;;
51566;SDS011;37657;53.182;5.638;2023-07-31T12:37:14;10.18;;;3.72;;
51566;SDS011;37657;53.182;5.638;2023-07-31T12:39:40;7.50;;;3.65;;
51566;SDS011;37657;53.182;5.638;2023-07-31T12:42:05;7.93;;;3.42;;
51566;SDS011;37657;53.182;5.638;2023-07-31T12:44:31;7.70;;;3.05;;
51566;SDS011;37657;53.182;5.638;2023-07-31T12:46:57;9.77;;;4.35;;
51566;SDS011;37657;53.182;5.638;2023-07-31T12:49:22;11.20;;;3.47;;
51566;SDS011;37657;53.182;5.638;2023-07-31T12:51:48;6.88;;;3.08;;
51566;SDS011;37657;53.182;5.638;2023-07-31T12:54:14;11.07;;;4.43;;
51566;SDS011;37657;53.182;5.638;2023-07-31T12:56:39;7.15;;;3.47;;
51566;SDS011;37657;53.182;5.638;2023-07-31T12:59:05;6.90;;;3.17;;
51566;SDS011;37657;53.182;5.638;2023-07-31T13:01:31;9.68;;;3.42;;
51566;SDS011;37657;53.182;5.638;2023-07-31T13:03:57;8.73;;;3.47;;
51566;SDS011;37657;53.182;5.638;2023-07-31T13:06:23;8.25;;;3.80;;
51566;SDS011;37657;53.182;5.638;2023-07-31T13:08:49;6.57;;;3.72;;
51566;SDS011;37657;53.182;5.638;2023-07-31T13:11:15;9.02;;;4.13;;
51566;SDS011;37657;53.182;5.638;2023-07-31T13:13:40;7.32;;;3.38;;
51566;SDS011;37657;53.182;5.638;2023-07-31T13:16:06;8.32;;;4.00;;
51566;SDS011;37657;53.182;5.638;2023-07-31T13:18:31;10.95;;;4.18;;
51566;SDS011;37657;53.182;5.638;2023-07-31T13:20:57;12.32;;;3.80;;
51566;SDS011;37657;53.182;5.638;2023-07-31T13:23:22;7.88;;;3.40;;
51566;SDS011;37657;53.182;5.638;2023-07-31T13:25:48;9.98;;;4.85;;
51566;SDS011;37657;53.182;5.638;2023-07-31T13:28:13;7.45;;;3.70;;
51566;SDS011;37657;53.182;5.638;2023-07-31T13:30:39;10.27;;;4.65;;
51566;SDS011;37657;53.182;5.638;2023-07-31T13:33:05;7.63;;;4.10;;
51566;SDS011;37657;53.182;5.638;2023-07-31T13:35:30;11.75;;;4.03;;
51566;SDS011;37657;53.182;5.638;2023-07-31T13:37:56;7.45;;;3.80;;
51566;SDS011;37657;53.182;5.638;2023-07-31T13:40:22;7.00;;;4.30;;
51566;SDS011;37657;53.182;5.638;2023-07-31T13:42:48;9.18;;;4.95;;
51566;SDS011;37657;53.182;5.638;2023-07-31T13:45:13;12.07;;;4.32;;
51566;SDS011;37657;53.182;5.638;2023-07-31T13:47:39;11.02;;;4.28;;
51566;SDS011;37657;53.182;5.638;2023-07-31T13:50:05;9.88;;;4.78;;
51566;SDS011;37657;53.182;5.638;2023-07-31T13:52:30;8.60;;;5.03;;
51566;SDS011;37657;53.182;5.638;2023-07-31T13:54:56;11.65;;;4.90;;
51566;SDS011;37657;53.182;5.638;2023-07-31T13:57:22;6.82;;;4.63;;
51566;SDS011;37657;53.182;5.638;2023-07-31T13:59:48;12.52;;;5.25;;
51566;SDS011;37657;53.182;5.638;2023-07-31T14:02:14;18.95;;;4.80;;
51566;SDS011;37657;53.182;5.638;2023-07-31T14:04:40;8.02;;;4.38;;
51566;SDS011;37657;53.182;5.638;2023-07-31T14:07:05;9.43;;;4.53;;
51566;SDS011;37657;53.182;5.638;2023-07-31T14:09:31;8.95;;;3.90;;
51566;SDS011;37657;53.182;5.638;2023-07-31T14:11:57;9.52;;;4.78;;
51566;SDS011;37657;53.182;5.638;2023-07-31T14:14:23;8.50;;;4.30;;
51566;SDS011;37657;53.182;5.638;2023-07-31T14:16:48;8.52;;;4.07;;
51566;SDS011;37657;53.182;5.638;2023-07-31T14:19:14;10.10;;;4.45;;
51566;SDS011;37657;53.182;5.638;2023-07-31T14:21:39;14.75;;;4.10;;
51566;SDS011;37657;53.182;5.638;2023-07-31T14:24:05;8.38;;;4.40;;
51566;SDS011;37657;53.182;5.638;2023-07-31T14:26:30;13.55;;;3.80;;
51566;SDS011;37657;53.182;5.638;2023-07-31T14:28:56;14.05;;;3.30;;
51566;SDS011;37657;53.182;5.638;2023-07-31T14:31:22;9.23;;;3.90;;
51566;SDS011;37657;53.182;5.638;2023-07-31T14:33:47;12.20;;;4.60;;
51566;SDS011;37657;53.182;5.638;2023-07-31T14:36:13;8.52;;;3.30;;
51566;SDS011;37657;53.182;5.638;2023-07-31T14:38:38;19.60;;;5.47;;
51566;SDS011;37657;53.182;5.638;2023-07-31T14:41:04;11.55;;;4.25;;
51566;SDS011;37657;53.182;5.638;2023-07-31T14:43:30;7.38;;;3.63;;
51566;SDS011;37657;53.182;5.638;2023-07-31T14:45:55;5.45;;;3.97;;
51566;SDS011;37657;53.182;5.638;2023-07-31T14:48:24;9.20;;;3.95;;
51566;SDS011;37657;53.182;5.638;2023-07-31T14:50:49;8.43;;;4.22;;
51566;SDS011;37657;53.182;5.638;2023-07-31T14:53:15;7.35;;;3.80;;